Terminal Aerodrome Forecast
Issued by NWS Albany, NY

Home | Current Version | Previous Version | Text Only | Print | Product List | Glossary On
Versions: 1 2 3 4 5 6 7 8 9 10 11 12 13 14 15 16 17
000
FTUS41 KALY 011135
TAFPOU
TAF
KPOU 011135Z 0112/0212 00000KT P6SM BKN100
     FM011400 16004KT P6SM VCSH OVC080
     FM011700 17009KT 3SM -SN BR BKN025 OVC040
     FM012000 17007KT 1 1/2SM -SN BR SCT008 OVC015
     FM020900 VRB03KT P6SM VCSH OVC015=

USA.gov is the U.S. government's official web portal to all federal, state and local government web resources and services.